Time;durP1;ratioP1;P1;durP2;ratioP2;P2;SDS_P1;SDS_P2;PMS_P1;PMS_P2;Temp;Humidity;BMP_temperature;BMP_pressure;BME280_temperature;BME280_humidity;BME280_pressure;Samples;Min_cycle;Max_cycle;Signal;HPM_P1;HPM_P2
2024/03/07 00:00:56;;;;;;;;;;;;;;;5.15;100.00;102619.75;5073652;28;19923;-75
2024/03/07 00:03:24;;;;;;;;;;;;;;;5.10;100.00;102617.97;5073423;28;20227;-75
2024/03/07 00:05:49;;;;;;;;;;;;;;;5.07;100.00;102623.13;5072783;28;19928;-75
2024/03/07 00:08:15;;;;;;;;;;;;;;;5.03;100.00;102617.03;5073596;28;20103;-75
2024/03/07 00:10:41;;;;;;;;;;;;;;;5.07;100.00;102626.59;5072818;28;19927;-75
2024/03/07 00:13:07;;;;;;;;;;;;;;;5.04;100.00;102629.16;5075623;28;19999;-75
2024/03/07 00:15:33;;;;;;;;;;;;;;;5.05;100.00;102627.44;5072349;28;20006;-75
2024/03/07 00:17:58;;;;;;;;;;;;;;;5.01;100.00;102634.31;5074161;28;20162;-75
2024/03/07 00:20:23;;;;;;;;;;;;;;;5.02;100.00;102632.59;5073260;28;20219;-75
2024/03/07 00:22:49;;;;;;;;;;;;;;;5.00;100.00;102635.16;5072078;28;19924;-75
2024/03/07 00:25:19;;;;;;;;;;;;;;;4.91;100.00;102633.38;5072518;28;20112;-75
2024/03/07 00:27:45;;;;;;;;;;;;;;;4.93;100.00;102633.34;5072246;28;19987;-75
2024/03/07 00:30:13;;;;;;;;;;;;;;;4.97;100.00;102635.16;5075403;28;19943;-75
2024/03/07 00:32:39;;;;;;;;;;;;;;;4.95;100.00;102631.66;5072539;28;19921;-75
2024/03/07 00:35:05;;;;;;;;;;;;;;;4.89;100.00;102635.03;5075049;28;19922;-75
2024/03/07 00:37:33;;;;;;;;;;;;;;;4.86;100.00;102635.03;5075536;28;19984;-75
2024/03/07 00:39:58;;;;;;;;;;;;;;;4.88;100.00;102625.53;5074729;28;19922;-75
2024/03/07 00:42:23;;;;;;;;;;;;;;;4.80;100.00;102624.56;5075281;28;19924;-75
2024/03/07 00:44:51;;;;;;;;;;;;;;;4.75;100.00;102631.44;5090750;28;20183;-75
2024/03/07 00:47:19;;;;;;;;;;;;;;;4.74;100.00;102632.28;5095665;28;19951;-75
2024/03/07 00:49:48;;;;;;;;;;;;;;;4.78;100.00;102623.66;5095862;28;19915;-75
2024/03/07 00:52:13;;;;;;;;;;;;;;;4.71;100.00;102624.44;5095277;28;19927;-75
2024/03/07 00:54:39;;;;;;;;;;;;;;;4.67;100.00;102620.94;5095284;28;19916;-75
2024/03/07 00:57:04;;;;;;;;;;;;;;;4.67;100.00;102618.34;5076828;28;19927;-75
2024/03/07 00:59:29;;;;;;;;;;;;;;;4.67;100.00;102615.75;5074953;28;19924;-75
2024/03/07 01:01:55;;;;;;;;;;;;;;;4.70;100.00;102613.19;5074712;28;20034;-75
2024/03/07 01:04:20;;;;;;;;;;;;;;;4.69;100.00;102606.25;5090746;28;19912;-75
2024/03/07 01:06:45;;;;;;;;;;;;;;;4.68;100.00;102609.72;5076218;28;20365;-75
2024/03/07 01:09:14;;;;;;;;;;;;;;;4.71;100.00;102612.34;5069956;28;20234;-75
2024/03/07 01:11:43;;;;;;;;;;;;;;;4.72;100.00;102611.50;5080802;28;20120;-75
2024/03/07 01:14:08;;;;;;;;;;;;;;;4.72;100.00;102616.69;5086488;28;20166;-75
2024/03/07 01:16:34;;;;;;;;;;;;;;;4.73;100.00;102610.66;5080792;28;20085;-75
2024/03/07 01:19:00;;;;;;;;;;;;;;;4.72;100.00;102613.22;5085366;28;19920;-75
2024/03/07 01:21:25;;;;;;;;;;;;;;;4.69;100.00;102618.38;5084354;28;20026;-75
2024/03/07 01:23:51;;;;;;;;;;;;;;;4.65;100.00;102614.00;5081515;28;19912;-75
2024/03/07 01:26:16;;;;;;;;;;;;;;;4.63;100.00;102611.38;5076250;28;20224;-75
2024/03/07 01:28:41;;;;;;;;;;;;;;;4.70;100.00;102612.34;5074440;28;19927;-75
2024/03/07 01:31:06;;;;;;;;;;;;;;;4.67;100.00;102605.38;5074721;28;19928;-75
2024/03/07 01:33:32;;;;;;;;;;;;;;;4.65;100.00;102612.25;5075277;28;20199;-75
2024/03/07 01:35:57;;;;;;;;;;;;;;;4.60;100.00;102608.72;5082804;28;20126;-75
2024/03/07 01:38:22;;;;;;;;;;;;;;;4.57;100.00;102612.19;5085678;28;19920;-75
2024/03/07 01:40:48;;;;;;;;;;;;;;;4.52;100.00;102606.06;5089925;28;19965;-75
2024/03/07 01:43:13;;;;;;;;;;;;;;;4.48;100.00;102598.22;5092274;28;20130;-75
2024/03/07 01:45:39;;;;;;;;;;;;;;;4.45;100.00;102601.63;5080958;28;19991;-75
2024/03/07 01:48:09;;;;;;;;;;;;;;;4.43;100.00;102604.19;5073746;28;19925;-75
2024/03/07 01:50:38;;;;;;;;;;;;;;;4.37;100.00;102604.13;5074870;28;19920;-75
2024/03/07 01:53:03;;;;;;;;;;;;;;;4.32;100.00;102605.78;5084961;28;19916;-75
2024/03/07 01:55:28;;;;;;;;;;;;;;;4.28;100.00;102603.16;5074802;28;19923;-75
2024/03/07 01:57:56;;;;;;;;;;;;;;;4.20;100.00;102601.31;5073752;28;20406;-75
2024/03/07 02:00:21;;;;;;;;;;;;;;;4.20;100.00;102595.25;5085691;28;19927;-75
2024/03/07 02:02:47;;;;;;;;;;;;;;;4.19;100.00;102596.97;5074022;28;19921;-75
2024/03/07 02:05:13;;;;;;;;;;;;;;;4.17;100.00;102595.22;5073820;28;20561;-75
2024/03/07 02:07:38;;;;;;;;;;;;;;;4.17;100.00;102592.63;5055991;28;19920;-75
2024/03/07 02:10:04;;;;;;;;;;;;;;;4.14;100.00;102588.25;5073964;28;20113;-75
2024/03/07 02:12:30;;;;;;;;;;;;;;;4.18;100.00;102583.97;5074229;28;19920;-75
2024/03/07 02:14:57;;;;;;;;;;;;;;;4.20;100.00;102584.88;5090247;28;19989;-75
2024/03/07 02:17:22;;;;;;;;;;;;;;;4.19;100.00;102583.13;5093855;28;19920;-75
2024/03/07 02:19:47;;;;;;;;;;;;;;;4.17;100.00;102585.72;5093933;28;19939;-75
2024/03/07 02:22:13;;;;;;;;;;;;;;;4.19;100.00;102583.13;5094790;28;19931;-75
2024/03/07 02:24:38;;;;;;;;;;;;;;;4.21;100.00;102578.84;5074026;28;19957;-75
2024/03/07 02:27:03;;;;;;;;;;;;;;;4.20;100.00;102570.19;5073550;28;19923;-75
2024/03/07 02:29:30;;;;;;;;;;;;;;;4.19;100.00;102575.34;5074064;28;19916;-75
2024/03/07 02:31:56;;;;;;;;;;;;;;;4.17;100.00;102567.56;5073699;28;19924;-75
2024/03/07 02:34:21;;;;;;;;;;;;;;;4.18;100.00;102568.41;5073725;28;20338;-75
2024/03/07 02:36:47;;;;;;;;;;;;;;;4.23;100.00;102567.63;5073715;28;20027;-75
2024/03/07 02:39:12;;;;;;;;;;;;;;;4.25;100.00;102567.66;5075454;28;20390;-75
2024/03/07 02:41:38;;;;;;;;;;;;;;;4.19;100.00;102559.81;5077631;28;20295;-75
2024/03/07 02:44:03;;;;;;;;;;;;;;;4.32;100.00;102566.00;5086619;28;19953;-75
2024/03/07 02:46:29;;;;;;;;;;;;;;;4.36;100.00;102558.28;5085630;28;19948;-75
2024/03/07 02:48:54;;;;;;;;;;;;;;;4.33;100.00;102554.78;5089651;28;19929;-75
2024/03/07 02:51:20;;;;;;;;;;;;;;;4.33;100.00;102557.38;5077909;28;20030;-75
2024/03/07 02:53:45;;;;;;;;;;;;;;;4.39;100.00;102555.72;5097236;28;20100;-75
2024/03/07 02:56:11;;;;;;;;;;;;;;;4.42;100.00;102553.19;5092994;28;19963;-75
2024/03/07 02:58:36;;;;;;;;;;;;;;;4.45;100.00;102546.28;5080439;28;19928;-75
2024/03/07 03:01:05;;;;;;;;;;;;;;;4.43;100.00;102554.91;5077112;28;19995;-75
2024/03/07 03:03:33;;;;;;;;;;;;;;;4.43;100.00;102543.66;5092309;28;20212;-75
2024/03/07 03:05:59;;;;;;;;;;;;;;;4.42;100.00;102547.09;5080074;28;19927;-75
2024/03/07 03:08:25;;;;;;;;;;;;;;;4.41;100.00;102548.84;5077702;28;19921;-75
2024/03/07 03:10:53;;;;;;;;;;;;;;;4.43;100.00;102541.94;5077526;28;19912;-75
2024/03/07 03:13:18;;;;;;;;;;;;;;;4.41;100.00;102548.84;5080377;28;19951;-75
2024/03/07 03:15:43;;;;;;;;;;;;;;;4.40;100.00;102539.31;5096934;28;19970;-75
2024/03/07 03:18:09;;;;;;;;;;;;;;;4.33;100.00;102537.50;5092648;28;19919;-75
2024/03/07 03:20:35;;;;;;;;;;;;;;;4.33;100.00;102540.09;5096777;28;19916;-75
2024/03/07 03:23:02;;;;;;;;;;;;;;;4.31;100.00;102535.72;5083886;28;19924;-75
2024/03/07 03:25:28;;;;;;;;;;;;;;;4.32;100.00;102538.34;5085304;28;19944;-75
2024/03/07 03:27:53;;;;;;;;;;;;;;;4.25;100.00;102541.72;5089310;28;19931;-75
2024/03/07 03:30:18;;;;;;;;;;;;;;;4.26;100.00;102542.56;5079655;28;19995;-75
2024/03/07 03:32:49;;;;;;;;;;;;;;;4.21;100.00;102537.34;5072197;28;20208;-75
2024/03/07 03:35:15;;;;;;;;;;;;;;;4.18;100.00;102539.88;5077578;28;20308;-75
2024/03/07 03:37:41;;;;;;;;;;;;;;;4.12;100.00;102540.69;5092203;28;19939;-75
2024/03/07 03:40:09;;;;;;;;;;;;;;;4.13;100.00;102539.84;5095771;28;19920;-75
2024/03/07 03:42:35;;;;;;;;;;;;;;;4.09;100.00;102529.41;5086116;28;19925;-75
2024/03/07 03:45:01;;;;;;;;;;;;;;;4.11;100.00;102527.69;5080095;28;19962;-75
2024/03/07 03:47:28;;;;;;;;;;;;;;;4.07;100.00;102523.31;5076706;28;19928;-75
2024/03/07 03:49:55;;;;;;;;;;;;;;;4.09;100.00;102526.81;5074701;28;21071;-75
2024/03/07 03:52:20;;;;;;;;;;;;;;;4.06;100.00;102526.75;5076857;28;19927;-75
2024/03/07 03:54:46;;;;;;;;;;;;;;;4.03;100.00;102522.41;5080316;28;19977;-75
2024/03/07 03:57:11;;;;;;;;;;;;;;;4.02;100.00;102525.84;5083112;28;19958;-75
2024/03/07 03:59:36;;;;;;;;;;;;;;;3.99;100.00;102520.63;5078261;28;19916;-75
2024/03/07 04:02:02;;;;;;;;;;;;;;;3.97;100.00;102519.75;5089344;28;19999;-75
2024/03/07 04:04:28;;;;;;;;;;;;;;;3.94;100.00;102519.69;5076411;28;19948;-75
2024/03/07 04:06:53;;;;;;;;;;;;;;;3.92;100.00;102524.00;5076175;28;19928;-75
2024/03/07 04:09:19;;;;;;;;;;;;;;;3.95;100.00;102522.31;5076627;28;20227;-75
2024/03/07 04:11:45;;;;;;;;;;;;;;;3.93;100.00;102521.44;5076562;28;19921;-75
2024/03/07 04:14:10;;;;;;;;;;;;;;;3.91;100.00;102523.13;5086269;28;19908;-75
2024/03/07 04:16:36;;;;;;;;;;;;;;;3.89;100.00;102522.22;5096587;28;19939;-75
2024/03/07 04:19:01;;;;;;;;;;;;;;;3.93;100.00;102510.16;5096029;28;19922;-75
2024/03/07 04:21:26;;;;;;;;;;;;;;;3.97;100.00;102515.44;5096370;28;20257;-75
2024/03/07 04:23:51;;;;;;;;;;;;;;;3.96;100.00;102516.25;5095957;28;20186;-75
2024/03/07 04:26:17;;;;;;;;;;;;;;;3.92;100.00;102518.81;5096370;28;19947;-75
2024/03/07 04:28:42;;;;;;;;;;;;;;;3.94;100.00;102520.56;5092101;28;19924;-75
2024/03/07 04:31:08;;;;;;;;;;;;;;;3.95;100.00;102519.72;5075377;28;20034;-75
2024/03/07 04:33:33;;;;;;;;;;;;;;;3.94;100.00;102517.97;5076323;28;19920;-75
2024/03/07 04:36:00;;;;;;;;;;;;;;;3.90;100.00;102513.59;5075543;28;19916;-75
2024/03/07 04:38:28;;;;;;;;;;;;;;;3.90;100.00;102508.41;5075816;28;19931;-75
2024/03/07 04:40:53;;;;;;;;;;;;;;;3.86;100.00;102504.06;5057176;28;19916;-75
2024/03/07 04:43:19;;;;;;;;;;;;;;;3.87;100.00;102500.59;5078784;28;19962;-75
2024/03/07 04:45:45;;;;;;;;;;;;;;;3.84;100.00;102501.44;5095763;28;20024;-75
2024/03/07 04:48:10;;;;;;;;;;;;;;;3.80;100.00;102506.53;5094997;28;19923;-75
2024/03/07 04:50:35;;;;;;;;;;;;;;;3.74;100.00;102501.28;5095871;28;19983;-75
2024/03/07 04:53:01;;;;;;;;;;;;;;;3.69;100.00;102497.75;5082779;28;20231;-75
2024/03/07 04:55:27;;;;;;;;;;;;;;;3.67;100.00;102494.25;5075762;28;20071;-75
2024/03/07 04:57:52;;;;;;;;;;;;;;;3.65;100.00;102502.00;5074850;28;20208;-75
2024/03/07 05:00:19;;;;;;;;;;;;;;;3.61;100.00;102501.09;5075167;28;19991;-75
2024/03/07 05:02:45;;;;;;;;;;;;;;;3.60;100.00;102498.47;5078710;28;19920;-76
2024/03/07 05:05:10;;;;;;;;;;;;;;;3.59;100.00;102500.19;5074810;28;19927;-76
2024/03/07 05:07:35;;;;;;;;;;;;;;;3.62;100.00;102508.03;5077363;28;20096;-76
2024/03/07 05:10:04;;;;;;;;;;;;;;;3.65;100.00;102508.06;5074555;28;19943;-76
2024/03/07 05:12:30;;;;;;;;;;;;;;;3.65;100.00;102509.78;5075511;28;20332;-76
2024/03/07 05:14:55;;;;;;;;;;;;;;;3.71;100.00;102509.00;5090784;28;19931;-76
2024/03/07 05:17:22;;;;;;;;;;;;;;;3.78;100.00;102510.81;5095546;28;20221;-76
2024/03/07 05:19:48;;;;;;;;;;;;;;;3.81;100.00;102503.97;5095029;28;19920;-76
2024/03/07 05:22:15;;;;;;;;;;;;;;;3.83;100.00;102504.00;5090778;28;19927;-76
2024/03/07 05:24:42;;;;;;;;;;;;;;;3.91;100.00;102505.00;5074821;28;20254;-76
2024/03/07 05:27:07;;;;;;;;;;;;;;;3.91;100.00;102506.69;5074467;28;19916;-76
2024/03/07 05:29:33;;;;;;;;;;;;;;;3.86;100.00;102509.22;5075004;28;19944;-76
2024/03/07 05:32:18;;;;;;;;;;;;;;;3.83;100.00;102512.63;5074564;28;20216;-75
2024/03/07 05:34:43;;;;;;;;;;;;;;;3.90;100.00;102518.78;5074522;28;19928;-76
2024/03/07 05:37:08;;;;;;;;;;;;;;;3.90;100.00;102505.81;5074240;28;19916;-76
2024/03/07 05:39:34;;;;;;;;;;;;;;;4.04;100.00;102513.78;5074465;28;20184;-76
2024/03/07 05:41:59;;;;;;;;;;;;;;;4.03;100.00;102507.72;5074118;28;19921;-76
2024/03/07 05:44:24;;;;;;;;;;;;;;;4.09;100.00;102504.34;5086452;28;19959;-76
2024/03/07 05:46:50;;;;;;;;;;;;;;;4.07;100.00;102513.81;5094297;28;19928;-76
2024/03/07 05:49:20;;;;;;;;;;;;;;;4.14;100.00;102504.41;5094690;28;19931;-76
2024/03/07 05:51:45;;;;;;;;;;;;;;;4.14;100.00;102509.59;5075723;28;19920;-76
2024/03/07 05:54:12;;;;;;;;;;;;;;;4.08;100.00;102500.00;5076824;28;19924;-76
2024/03/07 05:56:38;;;;;;;;;;;;;;;4.09;100.00;102503.47;5086505;28;19952;-76
2024/03/07 05:59:12;;;;;;;;;;;;;;;4.08;100.00;102500.00;5076630;28;19920;-75
2024/03/07 06:01:38;;;;;;;;;;;;;;;3.99;100.00;102499.91;5073722;28;19919;-76
2024/03/07 06:04:05;;;;;;;;;;;;;;;3.98;100.00;102500.72;5072135;28;20119;-76
2024/03/07 06:06:31;;;;;;;;;;;;;;;4.00;100.00;102499.03;5085860;28;19920;-76
2024/03/07 06:08:57;;;;;;;;;;;;;;;3.92;100.00;102501.53;5084368;28;19927;-76
2024/03/07 06:11:22;;;;;;;;;;;;;;;3.88;100.00;102501.47;5079584;28;19925;-76
2024/03/07 06:13:48;;;;;;;;;;;;;;;3.89;100.00;102506.66;5079471;28;20186;-76
2024/03/07 06:16:14;;;;;;;;;;;;;;;3.93;100.00;102500.69;5092733;28;19970;-76
2024/03/07 06:18:40;;;;;;;;;;;;;;;3.94;100.00;102497.22;5093338;28;20257;-76
2024/03/07 06:21:06;;;;;;;;;;;;;;;4.00;100.00;102505.09;5092819;28;19920;-76
2024/03/07 06:23:32;;;;;;;;;;;;;;;3.90;100.00;102499.78;5093295;28;19920;-76
2024/03/07 06:25:59;;;;;;;;;;;;;;;3.91;100.00;102501.50;5092454;28;19921;-76
2024/03/07 06:28:24;;;;;;;;;;;;;;;3.95;100.00;102506.75;5091787;28;19920;-76
2024/03/07 06:30:49;;;;;;;;;;;;;;;3.87;100.00;102503.19;5072722;28;20117;-76
2024/03/07 06:33:16;;;;;;;;;;;;;;;3.90;100.00;102503.22;5074195;28;20155;-76
2024/03/07 06:35:41;;;;;;;;;;;;;;;3.91;100.00;102493.72;5073710;28;19924;-76
2024/03/07 06:38:10;;;;;;;;;;;;;;;3.91;100.00;102497.22;5073870;28;19920;-75
2024/03/07 06:40:36;;;;;;;;;;;;;;;3.90;100.00;102492.00;5074099;28;20293;-75
2024/03/07 06:43:06;;;;;;;;;;;;;;;3.84;100.00;102493.66;5074246;28;19991;-75
2024/03/07 06:45:31;;;;;;;;;;;;;;;3.90;100.00;102498.03;5076166;28;20208;-75
2024/03/07 06:47:56;;;;;;;;;;;;;;;3.89;100.00;102488.50;5093320;28;19948;-75
2024/03/07 06:50:22;;;;;;;;;;;;;;;3.85;100.00;102492.78;5093894;28;19938;-75
2024/03/07 06:52:48;;;;;;;;;;;;;;;3.82;100.00;102487.59;5094067;28;19947;-75
2024/03/07 06:55:16;;;;;;;;;;;;;;;3.81;100.00;102495.34;5093558;28;19927;-75
2024/03/07 06:57:42;;;;;;;;;;;;;;;3.80;100.00;102491.88;5094079;28;19920;-75
2024/03/07 07:00:10;;;;;;;;;;;;;;;3.90;100.00;102494.59;5078074;28;20108;-75
2024/03/07 07:02:39;;;;;;;;;;;;;;;3.96;100.00;102487.75;5074003;28;19954;-75
2024/03/07 07:05:10;;;;;;;;;;;;;;;3.97;100.00;102480.88;5073242;28;19940;-75
2024/03/07 07:07:36;;;;;;;;;;;;;;;4.00;100.00;102489.56;5073883;28;20123;-75
2024/03/07 07:10:01;;;;;;;;;;;;;;;3.98;100.00;102491.25;5073130;28;19916;-75
2024/03/07 07:12:28;;;;;;;;;;;;;;;4.03;100.00;102483.53;5069371;28;19927;-75
2024/03/07 07:14:53;;;;;;;;;;;;;;;4.11;100.00;102486.22;5074461;28;20089;-75
2024/03/07 07:17:19;;;;;;;;;;;;;;;4.08;100.00;102487.06;5073543;28;19924;-75
2024/03/07 07:19:44;;;;;;;;;;;;;;;4.13;100.00;102490.56;5073130;28;20262;-75
2024/03/07 07:22:10;;;;;;;;;;;;;;;4.16;100.00;102490.59;5074641;28;20463;-75
2024/03/07 07:24:37;;;;;;;;;;;;;;;4.18;100.00;102490.63;5076648;28;19916;-75
2024/03/07 07:27:02;;;;;;;;;;;;;;;4.22;100.00;102489.78;5076053;28;19923;-75
2024/03/07 07:29:28;;;;;;;;;;;;;;;4.23;100.00;102492.41;5077390;28;19916;-75
2024/03/07 07:31:53;;;;;;;;;;;;;;;4.28;100.00;102492.47;5058484;28;19924;-75
2024/03/07 07:34:19;;;;;;;;;;;;;;;4.24;100.00;102493.31;5076180;28;19920;-75
2024/03/07 07:36:44;;;;;;;;;;;;;;;4.32;100.00;102495.97;5074532;28;20353;-75
2024/03/07 07:39:16;;;;;;;;;;;;;;;4.33;100.00;102488.22;5075018;28;19923;-75
2024/03/07 07:41:42;;;;;;;;;;;;;;;4.40;100.00;102490.03;5073017;28;19921;-75
2024/03/07 07:44:08;;;;;;;;;;;;;;;4.45;100.00;102497.00;5077383;28;19924;-75
2024/03/07 07:46:33;;;;;;;;;;;;;;;4.45;100.00;102486.63;5075015;28;20232;-75
2024/03/07 07:48:59;;;;;;;;;;;;;;;4.47;100.00;102492.69;5074200;28;20148;-75
2024/03/07 07:51:25;;;;;;;;;;;;;;;4.47;100.00;102485.75;5075089;28;20015;-75
2024/03/07 07:53:50;;;;;;;;;;;;;;;4.50;100.00;102488.41;5074113;28;20258;-75
2024/03/07 07:56:16;;;;;;;;;;;;;;;4.45;100.00;102484.88;5065761;28;20387;-75
2024/03/07 07:58:41;;;;;;;;;;;;;;;4.47;100.00;102492.69;5067644;28;20015;-75
2024/03/07 08:01:09;;;;;;;;;;;;;;;4.48;100.00;102481.47;5059577;28;19930;-75
2024/03/07 08:03:35;;;;;;;;;;;;;;;4.54;100.00;102486.72;5058616;28;20297;-75
2024/03/07 08:06:00;;;;;;;;;;;;;;;4.60;100.00;102482.47;5059225;28;19920;-75
2024/03/07 08:08:26;;;;;;;;;;;;;;;4.62;100.00;102485.09;5060567;28;20143;-75
2024/03/07 08:10:51;;;;;;;;;;;;;;;4.66;100.00;102486.84;5057562;28;19917;-75
2024/03/07 08:13:16;;;;;;;;;;;;;;;4.68;100.00;102481.69;5060619;28;19921;-75
2024/03/07 08:15:42;;;;;;;;;;;;;;;4.71;100.00;102487.78;5042934;28;19955;-75
2024/03/07 08:18:08;;;;;;;;;;;;;;;4.74;100.00;102482.59;5059950;28;20296;-75
2024/03/07 08:20:34;;;;;;;;;;;;;;;4.75;100.00;102479.16;5073988;28;19925;-75
2024/03/07 08:23:00;;;;;;;;;;;;;;;4.76;100.00;102473.09;5070418;28;19928;-75
2024/03/07 08:25:26;;;;;;;;;;;;;;;4.80;100.00;102480.06;5049146;28;19916;-75
2024/03/07 08:27:52;;;;;;;;;;;;;;;4.79;100.00;102485.25;5043751;28;19920;-75
2024/03/07 08:30:18;;;;;;;;;;;;;;;4.80;100.00;102477.47;5071279;28;19991;-75
2024/03/07 08:32:47;;;;;;;;;;;;;;;4.88;100.00;102482.72;5071553;28;19925;-75
2024/03/07 08:35:13;;;;;;;;;;;;;;;4.93;100.00;102480.16;5071219;28;19917;-75
2024/03/07 08:37:39;;;;;;;;;;;;;;;4.98;100.00;102470.69;5070953;28;20123;-75
2024/03/07 08:40:06;;;;;;;;;;;;;;;4.97;100.00;102476.75;5071619;28;19963;-75
2024/03/07 08:42:33;;;;;;;;;;;;;;;5.00;100.00;102469.88;5070337;28;20000;-75
2024/03/07 08:44:59;;;;;;;;;;;;;;;4.98;100.00;102473.28;5070823;28;19927;-75
2024/03/07 08:47:24;;;;;;;;;;;;;;;5.05;100.00;102464.69;5071259;28;19924;-75
2024/03/07 08:49:49;;;;;;;;;;;;;;;5.09;100.00;102469.06;5065547;28;19984;-75
2024/03/07 08:52:15;;;;;;;;;;;;;;;5.15;100.00;102465.66;5068840;28;20132;-75
2024/03/07 08:54:40;;;;;;;;;;;;;;;5.19;100.00;102468.28;5070871;28;19917;-75
2024/03/07 08:57:07;;;;;;;;;;;;;;;5.17;100.00;102459.59;5070946;28;19940;-75
2024/03/07 08:59:33;;;;;;;;;;;;;;;5.22;100.00;102464.84;5070466;28;19955;-75
2024/03/07 09:01:59;;;;;;;;;;;;;;;5.26;100.00;102463.16;5070283;28;20212;-75
2024/03/07 09:04:25;;;;;;;;;;;;;;;5.25;100.00;102462.25;5071063;28;20206;-75
2024/03/07 09:06:50;;;;;;;;;;;;;;;5.30;100.00;102460.56;5069484;28;20131;-75
2024/03/07 09:09:17;;;;;;;;;;;;;;;5.37;100.00;102456.28;5068895;28;19916;-75
2024/03/07 09:11:43;;;;;;;;;;;;;;;5.36;100.00;102455.41;5069172;28;20142;-75
2024/03/07 09:14:09;;;;;;;;;;;;;;;5.37;100.00;102454.56;5070233;28;20501;-75
2024/03/07 09:16:34;;;;;;;;;;;;;;;5.42;100.00;102458.91;5070486;28;19923;-75
2024/03/07 09:19:00;;;;;;;;;;;;;;;5.44;100.00;102458.06;5069417;28;19916;-75
2024/03/07 09:21:25;;;;;;;;;;;;;;;5.48;100.00;102456.38;5068770;28;20011;-75
2024/03/07 09:23:50;;;;;;;;;;;;;;;5.52;100.00;102455.53;5070360;28;19916;-75
2024/03/07 09:26:15;;;;;;;;;;;;;;;5.57;100.00;102454.69;5069359;28;19931;-75
2024/03/07 09:28:41;;;;;;;;;;;;;;;5.61;100.00;102452.13;5067087;28;19958;-75
2024/03/07 09:31:06;;;;;;;;;;;;;;;5.68;100.00;102459.94;5070140;28;19923;-75
2024/03/07 09:33:31;;;;;;;;;;;;;;;5.70;100.00;102452.16;5071088;28;20335;-75
2024/03/07 09:35:58;;;;;;;;;;;;;;;5.71;100.00;102464.28;5070099;28;19916;-75
2024/03/07 09:38:23;;;;;;;;;;;;;;;5.76;100.00;102452.19;5070624;28;19920;-75
2024/03/07 09:40:49;;;;;;;;;;;;;;;5.80;100.00;102453.94;5069875;28;20009;-75
2024/03/07 09:43:15;;;;;;;;;;;;;;;5.84;100.00;102447.91;5066421;28;19920;-75
2024/03/07 09:45:42;;;;;;;;;;;;;;;5.89;100.00;102450.50;5070562;28;20224;-75
2024/03/07 09:48:08;;;;;;;;;;;;;;;5.95;100.00;102451.44;5068373;28;19931;-75
2024/03/07 09:50:35;;;;;;;;;;;;;;;5.98;100.00;102447.13;5068727;28;20170;-75
2024/03/07 09:53:02;;;;;;;;;;;;;;;6.07;100.00;102441.94;5068213;28;19921;-75
2024/03/07 09:55:28;;;;;;;;;;;;;;;6.07;100.00;102442.81;5061801;28;19924;-75
2024/03/07 09:57:55;;;;;;;;;;;;;;;6.10;100.00;102445.44;5053853;28;19920;-75
2024/03/07 10:00:24;;;;;;;;;;;;;;;6.12;100.00;102440.25;5052718;28;19920;-75
2024/03/07 10:02:53;;;;;;;;;;;;;;;6.13;100.00;102440.25;5068517;28;20189;-75
2024/03/07 10:05:19;;;;;;;;;;;;;;;6.18;100.00;102442.84;5067310;28;19959;-75
2024/03/07 10:07:45;;;;;;;;;;;;;;;6.22;99.79;102439.41;5059520;28;19916;-75
2024/03/07 10:10:11;;;;;;;;;;;;;;;6.28;98.16;102436.81;5068334;28;20212;-75
2024/03/07 10:12:37;;;;;;;;;;;;;;;6.30;97.57;102431.63;5068465;28;19920;-75
2024/03/07 10:15:05;;;;;;;;;;;;;;;6.39;98.03;102428.19;5065306;28;19927;-75
2024/03/07 10:17:30;;;;;;;;;;;;;;;6.40;97.85;102435.97;5066317;28;19921;-75
2024/03/07 10:19:59;;;;;;;;;;;;;;;6.44;96.95;102427.31;5066608;28;19921;-75
2024/03/07 10:22:24;;;;;;;;;;;;;;;6.49;95.21;102420.41;5068739;28;20417;-75
2024/03/07 10:24:53;;;;;;;;;;;;;;;6.51;94.53;102420.38;5068897;28;19920;-75
2024/03/07 10:27:22;;;;;;;;;;;;;;;6.58;93.89;102416.91;5067045;28;20487;-76
2024/03/07 10:29:49;;;;;;;;;;;;;;;6.59;94.27;102421.28;5068657;28;19990;-76
2024/03/07 10:32:18;;;;;;;;;;;;;;;6.62;93.73;102416.06;5069421;28;20239;-76
2024/03/07 10:34:46;;;;;;;;;;;;;;;6.62;94.34;102412.59;5067979;28;19920;-76
2024/03/07 10:37:15;;;;;;;;;;;;;;;6.65;93.60;102408.25;5065305;28;19967;-76
2024/03/07 10:39:42;;;;;;;;;;;;;;;6.71;92.43;102415.19;5068720;28;20238;-76
2024/03/07 10:42:10;;;;;;;;;;;;;;;6.75;90.72;102403.03;5068991;28;19935;-76
2024/03/07 10:44:41;;;;;;;;;;;;;;;6.72;91.04;102404.78;5066832;28;19916;-76
2024/03/07 10:47:07;;;;;;;;;;;;;;;6.77;90.64;102401.31;5064028;28;20335;-76
2024/03/07 10:49:33;;;;;;;;;;;;;;;6.81;90.65;102400.47;5066339;28;19965;-76
2024/03/07 10:52:06;;;;;;;;;;;;;;;6.81;90.36;102401.31;5067924;28;20201;-76
2024/03/07 10:54:34;;;;;;;;;;;;;;;6.84;91.63;102395.22;5068220;28;19917;-76
2024/03/07 10:57:15;;;;;;;;;;;;;;;6.85;91.06;102400.44;5065387;28;19958;-76
2024/03/07 10:59:47;;;;;;;;;;;;;;;6.91;90.62;102399.56;5064165;28;19916;-76
2024/03/07 11:02:19;;;;;;;;;;;;;;;6.96;90.97;102395.22;5056081;28;19921;-76
2024/03/07 11:04:46;;;;;;;;;;;;;;;6.98;91.04;102390.88;5055656;28;20147;-76
2024/03/07 11:07:11;;;;;;;;;;;;;;;7.02;90.86;102384.81;5064271;28;19916;-76
2024/03/07 11:09:37;;;;;;;;;;;;;;;7.02;90.24;102387.44;5068656;28;19916;-76
2024/03/07 11:12:06;;;;;;;;;;;;;;;7.04;90.90;102392.59;5072766;28;20161;-76
2024/03/07 11:14:33;;;;;;;;;;;;;;;7.08;91.03;102391.75;5070912;28;19908;-76
2024/03/07 11:17:00;;;;;;;;;;;;;;;7.14;90.25;102394.34;5071840;28;19916;-76
2024/03/07 11:19:31;;;;;;;;;;;;;;;7.12;90.86;102385.66;5071557;28;19931;-77
2024/03/07 11:21:57;;;;;;;;;;;;;;;7.14;91.84;102386.53;5066823;28;19920;-76
2024/03/07 11:24:28;;;;;;;;;;;;;;;7.25;90.92;102384.75;5061514;28;20205;-76
2024/03/07 11:26:55;;;;;;;;;;;;;;;7.29;90.82;102373.47;5061564;28;20133;-76
2024/03/07 11:29:35;;;;;;;;;;;;;;;7.33;89.72;102368.25;5057466;28;19989;-76
2024/03/07 11:32:01;;;;;;;;;;;;;;;7.30;88.84;102359.56;5061597;28;19916;-76
2024/03/07 11:34:29;;;;;;;;;;;;;;;7.32;86.35;102366.53;5069632;28;19921;-76
2024/03/07 11:36:56;;;;;;;;;;;;;;;7.28;86.93;102358.72;5072179;28;19923;-77
2024/03/07 11:39:43;;;;;;;;;;;;;;;7.30;88.06;102363.91;5072490;28;19928;-77
2024/03/07 11:42:25;;;;;;;;;;;;;;;7.32;87.32;102354.34;5072999;28;19927;-76
2024/03/07 11:44:51;;;;;;;;;;;;;;;7.38;86.38;102350.84;5072197;28;20133;-77
2024/03/07 11:47:17;;;;;;;;;;;;;;;7.35;86.86;102354.34;5073506;28;19924;-76
2024/03/07 11:49:43;;;;;;;;;;;;;;;7.37;87.24;102346.50;5069712;28;19931;-76
2024/03/07 11:52:12;;;;;;;;;;;;;;;7.42;87.52;102340.44;5065656;28;20353;-77
2024/03/07 11:54:41;;;;;;;;;;;;;;;7.50;87.42;102337.78;5070232;28;20204;-76
2024/03/07 11:57:12;;;;;;;;;;;;;;;7.49;85.71;102330.81;5068132;28;19916;-77
2024/03/07 11:59:39;;;;;;;;;;;;;;;7.50;84.58;102322.16;5066626;28;20195;-76
2024/03/07 12:02:04;;;;;;;;;;;;;;;7.54;84.20;102316.03;5065400;28;20009;-76
2024/03/07 12:04:30;;;;;;;;;;;;;;;7.52;84.24;102315.19;5073805;28;19920;-77
2024/03/07 12:06:55;;;;;;;;;;;;;;;7.54;84.78;102307.34;5075362;28;19916;-77
2024/03/07 12:09:23;;;;;;;;;;;;;;;7.57;85.02;102307.34;5075629;28;19938;-76
2024/03/07 12:11:52;;;;;;;;;;;;;;;7.59;84.20;102301.25;5069787;28;20220;-76
2024/03/07 12:14:21;;;;;;;;;;;;;;;7.67;84.05;102301.19;5071208;28;19994;-77
2024/03/07 12:16:46;;;;;;;;;;;;;;;7.75;83.51;102294.22;5072168;28;19983;-77
2024/03/07 12:19:12;;;;;;;;;;;;;;;7.78;83.87;102283.75;5071773;28;19916;-77
2024/03/07 12:21:38;;;;;;;;;;;;;;;7.81;82.88;102283.75;5070947;28;19932;-77
2024/03/07 12:24:11;;;;;;;;;;;;;;;7.86;83.00;102268.06;5071303;28;19969;-77
2024/03/07 12:26:37;;;;;;;;;;;;;;;7.87;81.52;102260.22;5071482;28;19921;-77
2024/03/07 12:29:12;;;;;;;;;;;;;;;7.91;81.31;102266.28;5052639;28;19916;-76
2024/03/07 12:31:38;;;;;;;;;;;;;;;7.98;80.38;102259.28;5070332;28;19920;-77
2024/03/07 12:34:04;;;;;;;;;;;;;;;8.01;80.81;102262.72;5070776;28;19948;-77